sensor_id;sensor_type;location;lat;lon;timestamp;temperature;humidity
20481;DHT22;10399;50.754;3.366;2022-07-30T00:00:15;19.50;99.90
20481;DHT22;10399;50.754;3.366;2022-07-30T00:02:51;19.20;99.90
20481;DHT22;10399;50.754;3.366;2022-07-30T00:05:19;19.30;99.90
20481;DHT22;10399;50.754;3.366;2022-07-30T00:07:46;19.50;99.90
20481;DHT22;10399;50.754;3.366;2022-07-30T00:10:13;19.40;99.90
20481;DHT22;10399;50.754;3.366;2022-07-30T00:12:40;19.30;99.90
20481;DHT22;10399;50.754;3.366;2022-07-30T00:15:08;19.30;99.90
20481;DHT22;10399;50.754;3.366;2022-07-30T00:17:35;19.30;99.90
20481;DHT22;10399;50.754;3.366;2022-07-30T00:20:02;19.20;99.90
20481;DHT22;10399;50.754;3.366;2022-07-30T00:22:30;19.20;99.90
20481;DHT22;10399;50.754;3.366;2022-07-30T00:24:57;19.00;99.90
20481;DHT22;10399;50.754;3.366;2022-07-30T00:27:25;19.20;99.90
20481;DHT22;10399;50.754;3.366;2022-07-30T00:29:52;19.20;99.90
20481;DHT22;10399;50.754;3.366;2022-07-30T00:32:19;19.00;99.90
20481;DHT22;10399;50.754;3.366;2022-07-30T00:34:46;18.90;99.90
20481;DHT22;10399;50.754;3.366;2022-07-30T00:37:13;18.90;99.90
20481;DHT22;10399;50.754;3.366;2022-07-30T00:39:41;19.00;99.90
20481;DHT22;10399;50.754;3.366;2022-07-30T00:42:08;19.10;99.90
20481;DHT22;10399;50.754;3.366;2022-07-30T00:44:36;19.00;99.90
20481;DHT22;10399;50.754;3.366;2022-07-30T00:47:06;18.90;99.90
20481;DHT22;10399;50.754;3.366;2022-07-30T00:49:33;18.90;99.90
20481;DHT22;10399;50.754;3.366;2022-07-30T00:52:00;18.80;99.90
20481;DHT22;10399;50.754;3.366;2022-07-30T00:54:27;19.00;99.90
20481;DHT22;10399;50.754;3.366;2022-07-30T00:56:54;19.10;99.90
20481;DHT22;10399;50.754;3.366;2022-07-30T00:59:21;19.00;99.90
20481;DHT22;10399;50.754;3.366;2022-07-30T01:01:48;19.00;99.90
20481;DHT22;10399;50.754;3.366;2022-07-30T01:04:16;19.10;99.90
20481;DHT22;10399;50.754;3.366;2022-07-30T01:06:43;19.00;99.90
20481;DHT22;10399;50.754;3.366;2022-07-30T01:09:11;19.00;99.90
20481;DHT22;10399;50.754;3.366;2022-07-30T01:11:40;18.90;99.90
20481;DHT22;10399;50.754;3.366;2022-07-30T01:14:08;18.90;99.90
20481;DHT22;10399;50.754;3.366;2022-07-30T01:16:37;18.80;99.90
20481;DHT22;10399;50.754;3.366;2022-07-30T01:19:12;18.80;99.90
20481;DHT22;10399;50.754;3.366;2022-07-30T01:30:31;18.70;99.90
20481;DHT22;10399;50.754;3.366;2022-07-30T01:33:02;18.50;99.90
20481;DHT22;10399;50.754;3.366;2022-07-30T01:35:32;18.40;99.90
20481;DHT22;10399;50.754;3.366;2022-07-30T01:38:01;18.40;99.90
20481;DHT22;10399;50.754;3.366;2022-07-30T01:40:30;18.40;99.90
20481;DHT22;10399;50.754;3.366;2022-07-30T01:42:59;18.30;99.90
20481;DHT22;10399;50.754;3.366;2022-07-30T01:45:28;18.20;99.90
20481;DHT22;10399;50.754;3.366;2022-07-30T01:48:00;18.30;99.90
20481;DHT22;10399;50.754;3.366;2022-07-30T01:50:29;18.30;99.90
20481;DHT22;10399;50.754;3.366;2022-07-30T01:52:59;18.20;99.90
20481;DHT22;10399;50.754;3.366;2022-07-30T01:55:32;18.20;99.90
20481;DHT22;10399;50.754;3.366;2022-07-30T01:58:00;18.20;99.90
20481;DHT22;10399;50.754;3.366;2022-07-30T02:00:30;18.30;99.90
20481;DHT22;10399;50.754;3.366;2022-07-30T02:02:59;18.30;99.90
20481;DHT22;10399;50.754;3.366;2022-07-30T02:05:27;18.40;99.90
20481;DHT22;10399;50.754;3.366;2022-07-30T02:08:02;18.50;99.90
20481;DHT22;10399;50.754;3.366;2022-07-30T02:10:41;18.40;99.90
20481;DHT22;10399;50.754;3.366;2022-07-30T02:13:11;18.40;99.90
20481;DHT22;10399;50.754;3.366;2022-07-30T02:15:51;18.50;99.90
20481;DHT22;10399;50.754;3.366;2022-07-30T02:18:27;18.50;99.90
20481;DHT22;10399;50.754;3.366;2022-07-30T02:21:04;18.30;99.90
20481;DHT22;10399;50.754;3.366;2022-07-30T02:23:43;18.30;99.90
20481;DHT22;10399;50.754;3.366;2022-07-30T02:26:18;18.20;99.90
20481;DHT22;10399;50.754;3.366;2022-07-30T02:28:50;18.10;99.90
20481;DHT22;10399;50.754;3.366;2022-07-30T02:31:22;17.90;99.90
20481;DHT22;10399;50.754;3.366;2022-07-30T02:33:54;18.00;99.90
20481;DHT22;10399;50.754;3.366;2022-07-30T02:36:22;18.00;99.90
20481;DHT22;10399;50.754;3.366;2022-07-30T02:38:52;17.90;99.90
20481;DHT22;10399;50.754;3.366;2022-07-30T02:41:21;18.00;99.90
20481;DHT22;10399;50.754;3.366;2022-07-30T02:43:51;18.10;99.90
20481;DHT22;10399;50.754;3.366;2022-07-30T02:46:21;18.10;99.90
20481;DHT22;10399;50.754;3.366;2022-07-30T02:48:49;18.10;99.90
20481;DHT22;10399;50.754;3.366;2022-07-30T02:51:18;18.00;99.90
20481;DHT22;10399;50.754;3.366;2022-07-30T02:53:47;18.00;99.90
20481;DHT22;10399;50.754;3.366;2022-07-30T02:56:19;17.80;99.90
20481;DHT22;10399;50.754;3.366;2022-07-30T02:58:47;17.80;99.90
20481;DHT22;10399;50.754;3.366;2022-07-30T03:01:17;17.90;99.90
20481;DHT22;10399;50.754;3.366;2022-07-30T03:03:46;17.90;99.90
20481;DHT22;10399;50.754;3.366;2022-07-30T03:06:14;17.90;99.90
20481;DHT22;10399;50.754;3.366;2022-07-30T03:08:42;17.90;99.90
20481;DHT22;10399;50.754;3.366;2022-07-30T03:11:12;17.80;99.90
20481;DHT22;10399;50.754;3.366;2022-07-30T03:13:39;17.90;99.90
20481;DHT22;10399;50.754;3.366;2022-07-30T03:16:08;17.90;99.90
20481;DHT22;10399;50.754;3.366;2022-07-30T03:18:37;17.90;99.90
20481;DHT22;10399;50.754;3.366;2022-07-30T03:21:07;17.90;99.90
20481;DHT22;10399;50.754;3.366;2022-07-30T03:23:36;17.90;99.90
20481;DHT22;10399;50.754;3.366;2022-07-30T03:26:05;17.90;99.90
20481;DHT22;10399;50.754;3.366;2022-07-30T03:28:36;17.90;99.90
20481;DHT22;10399;50.754;3.366;2022-07-30T03:31:05;17.80;99.90
20481;DHT22;10399;50.754;3.366;2022-07-30T03:33:36;18.00;99.90
20481;DHT22;10399;50.754;3.366;2022-07-30T03:36:06;18.00;99.90
20481;DHT22;10399;50.754;3.366;2022-07-30T03:38:36;17.80;99.90
20481;DHT22;10399;50.754;3.366;2022-07-30T03:41:05;17.70;99.90
20481;DHT22;10399;50.754;3.366;2022-07-30T03:43:33;17.50;99.90
20481;DHT22;10399;50.754;3.366;2022-07-30T03:46:04;17.40;99.90
20481;DHT22;10399;50.754;3.366;2022-07-30T03:48:33;17.20;99.90
20481;DHT22;10399;50.754;3.366;2022-07-30T03:51:02;17.30;99.90
20481;DHT22;10399;50.754;3.366;2022-07-30T03:53:31;17.20;99.90
20481;DHT22;10399;50.754;3.366;2022-07-30T03:55:59;17.30;99.90
20481;DHT22;10399;50.754;3.366;2022-07-30T03:58:26;17.30;99.90
20481;DHT22;10399;50.754;3.366;2022-07-30T04:01:01;17.30;99.90
20481;DHT22;10399;50.754;3.366;2022-07-30T04:03:30;17.50;99.90
20481;DHT22;10399;50.754;3.366;2022-07-30T04:05:58;17.50;99.90
20481;DHT22;10399;50.754;3.366;2022-07-30T04:08:26;17.40;99.90
20481;DHT22;10399;50.754;3.366;2022-07-30T04:10:54;17.30;99.90
20481;DHT22;10399;50.754;3.366;2022-07-30T04:13:21;17.30;99.90
20481;DHT22;10399;50.754;3.366;2022-07-30T04:18:59;17.70;99.90
20481;DHT22;10399;50.754;3.366;2022-07-30T04:21:31;17.60;99.90
20481;DHT22;10399;50.754;3.366;2022-07-30T04:23:59;17.50;99.90
20481;DHT22;10399;50.754;3.366;2022-07-30T04:26:34;17.20;99.90
20481;DHT22;10399;50.754;3.366;2022-07-30T04:29:09;17.10;99.90
20481;DHT22;10399;50.754;3.366;2022-07-30T04:31:40;17.10;99.90
20481;DHT22;10399;50.754;3.366;2022-07-30T04:34:13;17.10;99.90
20481;DHT22;10399;50.754;3.366;2022-07-30T04:36:42;17.10;99.90
20481;DHT22;10399;50.754;3.366;2022-07-30T04:39:10;17.10;99.90
20481;DHT22;10399;50.754;3.366;2022-07-30T04:41:37;17.20;99.90
20481;DHT22;10399;50.754;3.366;2022-07-30T04:44:19;17.20;99.90
20481;DHT22;10399;50.754;3.366;2022-07-30T04:46:46;17.20;99.90
20481;DHT22;10399;50.754;3.366;2022-07-30T04:49:15;17.40;99.90
20481;DHT22;10399;50.754;3.366;2022-07-30T04:51:44;17.40;99.90
20481;DHT22;10399;50.754;3.366;2022-07-30T04:54:12;17.20;99.90
20481;DHT22;10399;50.754;3.366;2022-07-30T04:56:43;17.10;99.90
20481;DHT22;10399;50.754;3.366;2022-07-30T04:59:27;17.30;99.90
20481;DHT22;10399;50.754;3.366;2022-07-30T05:01:56;17.30;99.90
20481;DHT22;10399;50.754;3.366;2022-07-30T05:04:25;17.20;99.90
20481;DHT22;10399;50.754;3.366;2022-07-30T05:06:54;17.10;99.90
20481;DHT22;10399;50.754;3.366;2022-07-30T05:09:22;17.30;99.90
20481;DHT22;10399;50.754;3.366;2022-07-30T05:11:51;17.30;99.90
20481;DHT22;10399;50.754;3.366;2022-07-30T05:14:21;17.30;99.90
20481;DHT22;10399;50.754;3.366;2022-07-30T05:16:52;17.20;99.90
20481;DHT22;10399;50.754;3.366;2022-07-30T05:19:21;17.20;99.90
20481;DHT22;10399;50.754;3.366;2022-07-30T05:21:49;17.30;99.90
20481;DHT22;10399;50.754;3.366;2022-07-30T05:24:17;17.40;99.90
20481;DHT22;10399;50.754;3.366;2022-07-30T05:26:44;17.60;99.90
20481;DHT22;10399;50.754;3.366;2022-07-30T05:29:12;17.60;99.90
20481;DHT22;10399;50.754;3.366;2022-07-30T05:31:46;17.80;99.90
20481;DHT22;10399;50.754;3.366;2022-07-30T05:34:13;17.90;99.90
20481;DHT22;10399;50.754;3.366;2022-07-30T05:36:40;17.90;99.90
20481;DHT22;10399;50.754;3.366;2022-07-30T05:39:08;17.80;99.90
20481;DHT22;10399;50.754;3.366;2022-07-30T05:41:35;17.70;99.90
20481;DHT22;10399;50.754;3.366;2022-07-30T05:44:05;17.70;99.90
20481;DHT22;10399;50.754;3.366;2022-07-30T05:46:33;17.60;99.90
20481;DHT22;10399;50.754;3.366;2022-07-30T05:49:02;17.60;99.90
20481;DHT22;10399;50.754;3.366;2022-07-30T05:51:29;17.60;99.90
20481;DHT22;10399;50.754;3.366;2022-07-30T05:53:56;17.80;99.90
20481;DHT22;10399;50.754;3.366;2022-07-30T05:56:23;18.00;99.90
20481;DHT22;10399;50.754;3.366;2022-07-30T05:58:50;18.10;99.90
20481;DHT22;10399;50.754;3.366;2022-07-30T06:01:17;18.10;99.90
20481;DHT22;10399;50.754;3.366;2022-07-30T06:03:44;17.70;99.90
20481;DHT22;10399;50.754;3.366;2022-07-30T06:06:11;17.90;99.90
20481;DHT22;10399;50.754;3.366;2022-07-30T06:08:38;18.00;99.90
20481;DHT22;10399;50.754;3.366;2022-07-30T06:11:05;18.00;99.90
20481;DHT22;10399;50.754;3.366;2022-07-30T06:13:34;18.00;99.90
20481;DHT22;10399;50.754;3.366;2022-07-30T06:16:02;18.10;99.90
20481;DHT22;10399;50.754;3.366;2022-07-30T06:18:29;18.30;99.90
20481;DHT22;10399;50.754;3.366;2022-07-30T06:20:56;18.30;99.90
20481;DHT22;10399;50.754;3.366;2022-07-30T06:23:24;18.50;99.90
20481;DHT22;10399;50.754;3.366;2022-07-30T06:25:51;18.70;99.90
20481;DHT22;10399;50.754;3.366;2022-07-30T06:28:18;18.80;99.90
20481;DHT22;10399;50.754;3.366;2022-07-30T06:31:04;18.90;99.90
20481;DHT22;10399;50.754;3.366;2022-07-30T06:33:32;19.30;99.90
20481;DHT22;10399;50.754;3.366;2022-07-30T06:35:59;19.40;99.90
20481;DHT22;10399;50.754;3.366;2022-07-30T06:38:27;19.40;99.90
20481;DHT22;10399;50.754;3.366;2022-07-30T06:40:55;19.10;99.90
20481;DHT22;10399;50.754;3.366;2022-07-30T06:43:28;19.40;99.90
20481;DHT22;10399;50.754;3.366;2022-07-30T06:45:56;19.40;99.90
20481;DHT22;10399;50.754;3.366;2022-07-30T06:48:23;19.40;99.90
20481;DHT22;10399;50.754;3.366;2022-07-30T06:50:50;19.80;99.90
20481;DHT22;10399;50.754;3.366;2022-07-30T06:53:18;19.80;99.90
20481;DHT22;10399;50.754;3.366;2022-07-30T06:55:44;19.90;99.90
20481;DHT22;10399;50.754;3.366;2022-07-30T06:58:11;20.10;99.90
20481;DHT22;10399;50.754;3.366;2022-07-30T07:00:39;20.10;99.90
20481;DHT22;10399;50.754;3.366;2022-07-30T07:03:05;20.20;99.90
20481;DHT22;10399;50.754;3.366;2022-07-30T07:05:38;20.50;99.90
20481;DHT22;10399;50.754;3.366;2022-07-30T07:08:05;20.50;99.90
20481;DHT22;10399;50.754;3.366;2022-07-30T07:10:32;20.40;99.90
20481;DHT22;10399;50.754;3.366;2022-07-30T07:12:59;20.70;99.90
20481;DHT22;10399;50.754;3.366;2022-07-30T07:15:26;20.80;99.90
20481;DHT22;10399;50.754;3.366;2022-07-30T07:18:04;20.80;99.90
20481;DHT22;10399;50.754;3.366;2022-07-30T07:20:34;20.90;99.90
20481;DHT22;10399;50.754;3.366;2022-07-30T07:23:01;21.20;99.90
20481;DHT22;10399;50.754;3.366;2022-07-30T07:25:35;21.10;99.90
20481;DHT22;10399;50.754;3.366;2022-07-30T07:28:02;21.10;99.90
20481;DHT22;10399;50.754;3.366;2022-07-30T07:30:40;21.20;99.90
20481;DHT22;10399;50.754;3.366;2022-07-30T07:33:17;21.40;99.90
20481;DHT22;10399;50.754;3.366;2022-07-30T07:35:44;21.50;99.90
20481;DHT22;10399;50.754;3.366;2022-07-30T07:38:18;21.70;99.90
20481;DHT22;10399;50.754;3.366;2022-07-30T07:40:46;21.90;99.90
20481;DHT22;10399;50.754;3.366;2022-07-30T07:43:14;21.90;99.90
20481;DHT22;10399;50.754;3.366;2022-07-30T07:45:42;21.90;99.90
20481;DHT22;10399;50.754;3.366;2022-07-30T07:48:09;22.00;99.90
20481;DHT22;10399;50.754;3.366;2022-07-30T07:50:37;22.00;99.90
20481;DHT22;10399;50.754;3.366;2022-07-30T07:53:05;22.10;99.90
20481;DHT22;10399;50.754;3.366;2022-07-30T07:55:33;22.20;99.90
20481;DHT22;10399;50.754;3.366;2022-07-30T07:58:01;22.40;99.90
20481;DHT22;10399;50.754;3.366;2022-07-30T08:00:30;22.40;99.90
20481;DHT22;10399;50.754;3.366;2022-07-30T08:02:57;22.20;99.90
20481;DHT22;10399;50.754;3.366;2022-07-30T08:05:25;22.50;99.90
20481;DHT22;10399;50.754;3.366;2022-07-30T08:08:12;22.20;99.90
20481;DHT22;10399;50.754;3.366;2022-07-30T08:10:39;22.30;99.90
20481;DHT22;10399;50.754;3.366;2022-07-30T08:13:06;22.20;99.90
20481;DHT22;10399;50.754;3.366;2022-07-30T08:15:54;22.30;99.90
20481;DHT22;10399;50.754;3.366;2022-07-30T08:18:21;22.60;99.90
20481;DHT22;10399;50.754;3.366;2022-07-30T08:20:48;22.60;99.90
20481;DHT22;10399;50.754;3.366;2022-07-30T08:23:16;22.70;99.90
20481;DHT22;10399;50.754;3.366;2022-07-30T08:25:45;22.80;99.90
20481;DHT22;10399;50.754;3.366;2022-07-30T08:28:12;22.90;99.90
20481;DHT22;10399;50.754;3.366;2022-07-30T08:30:59;23.20;99.90
20481;DHT22;10399;50.754;3.366;2022-07-30T08:33:28;23.30;99.90
20481;DHT22;10399;50.754;3.366;2022-07-30T08:35:55;23.40;99.90
20481;DHT22;10399;50.754;3.366;2022-07-30T08:38:35;23.10;99.90
20481;DHT22;10399;50.754;3.366;2022-07-30T08:41:03;23.20;99.90
20481;DHT22;10399;50.754;3.366;2022-07-30T08:43:32;23.30;99.90
20481;DHT22;10399;50.754;3.366;2022-07-30T08:46:01;23.70;99.90
20481;DHT22;10399;50.754;3.366;2022-07-30T08:48:30;24.10;99.90
20481;DHT22;10399;50.754;3.366;2022-07-30T08:50:57;24.40;99.90
20481;DHT22;10399;50.754;3.366;2022-07-30T08:53:25;24.40;99.90
20481;DHT22;10399;50.754;3.366;2022-07-30T08:55:54;24.50;99.90
20481;DHT22;10399;50.754;3.366;2022-07-30T08:58:29;24.80;99.90
20481;DHT22;10399;50.754;3.366;2022-07-30T09:00:57;24.80;99.90
20481;DHT22;10399;50.754;3.366;2022-07-30T09:03:24;24.80;99.90
20481;DHT22;10399;50.754;3.366;2022-07-30T09:05:51;25.20;99.90
20481;DHT22;10399;50.754;3.366;2022-07-30T09:08:18;25.30;99.90
20481;DHT22;10399;50.754;3.366;2022-07-30T09:10:47;25.20;99.90
20481;DHT22;10399;50.754;3.366;2022-07-30T09:13:23;25.20;99.90
20481;DHT22;10399;50.754;3.366;2022-07-30T09:15:51;25.20;99.90
20481;DHT22;10399;50.754;3.366;2022-07-30T09:18:37;25.10;99.90
20481;DHT22;10399;50.754;3.366;2022-07-30T09:21:18;25.40;99.90
20481;DHT22;10399;50.754;3.366;2022-07-30T09:24:05;25.90;99.90
20481;DHT22;10399;50.754;3.366;2022-07-30T09:26:58;26.10;99.90
20481;DHT22;10399;50.754;3.366;2022-07-30T09:29:28;26.50;99.90
20481;DHT22;10399;50.754;3.366;2022-07-30T09:32:00;26.40;99.90
20481;DHT22;10399;50.754;3.366;2022-07-30T09:37:01;26.50;99.90
20481;DHT22;10399;50.754;3.366;2022-07-30T09:39:35;26.60;99.90
20481;DHT22;10399;50.754;3.366;2022-07-30T09:42:04;26.70;99.90
20481;DHT22;10399;50.754;3.366;2022-07-30T09:44:43;26.60;99.90
20481;DHT22;10399;50.754;3.366;2022-07-30T09:47:33;26.90;99.90
20481;DHT22;10399;50.754;3.366;2022-07-30T09:52:37;27.10;99.90
20481;DHT22;10399;50.754;3.366;2022-07-30T09:55:14;26.90;99.90
20481;DHT22;10399;50.754;3.366;2022-07-30T09:57:57;27.20;99.90
20481;DHT22;10399;50.754;3.366;2022-07-30T10:00:26;27.20;99.90
20481;DHT22;10399;50.754;3.366;2022-07-30T10:02:54;27.40;99.90
20481;DHT22;10399;50.754;3.366;2022-07-30T10:05:41;27.60;99.90
20481;DHT22;10399;50.754;3.366;2022-07-30T10:08:14;27.70;99.90
20481;DHT22;10399;50.754;3.366;2022-07-30T10:10:45;27.60;99.90
20481;DHT22;10399;50.754;3.366;2022-07-30T10:13:17;27.80;99.90
20481;DHT22;10399;50.754;3.366;2022-07-30T10:15:48;27.60;99.90
20481;DHT22;10399;50.754;3.366;2022-07-30T10:18:16;27.30;99.90
20481;DHT22;10399;50.754;3.366;2022-07-30T10:20:44;27.60;99.90
20481;DHT22;10399;50.754;3.366;2022-07-30T10:23:11;27.50;99.90
20481;DHT22;10399;50.754;3.366;2022-07-30T10:25:42;27.50;99.90
20481;DHT22;10399;50.754;3.366;2022-07-30T10:28:20;28.20;99.90
20481;DHT22;10399;50.754;3.366;2022-07-30T10:30:52;28.20;99.90
20481;DHT22;10399;50.754;3.366;2022-07-30T10:33:24;28.30;99.90
20481;DHT22;10399;50.754;3.366;2022-07-30T10:36:02;28.40;99.90
20481;DHT22;10399;50.754;3.366;2022-07-30T10:38:33;28.40;99.90
20481;DHT22;10399;50.754;3.366;2022-07-30T10:47:06;28.90;99.50
20481;DHT22;10399;50.754;3.366;2022-07-30T10:49:36;28.70;99.80
20481;DHT22;10399;50.754;3.366;2022-07-30T10:52:09;28.90;98.70
20481;DHT22;10399;50.754;3.366;2022-07-30T10:54:44;28.90;99.00
20481;DHT22;10399;50.754;3.366;2022-07-30T10:57:17;29.20;99.00
20481;DHT22;10399;50.754;3.366;2022-07-30T11:02:20;29.60;98.00
20481;DHT22;10399;50.754;3.366;2022-07-30T11:04:49;29.30;96.40
20481;DHT22;10399;50.754;3.366;2022-07-30T11:09:57;29.10;97.50
20481;DHT22;10399;50.754;3.366;2022-07-30T11:15:12;28.90;97.60
20481;DHT22;10399;50.754;3.366;2022-07-30T11:18:08;29.00;97.70
20481;DHT22;10399;50.754;3.366;2022-07-30T11:20:39;28.80;98.30
20481;DHT22;10399;50.754;3.366;2022-07-30T11:23:56;29.00;97.50
20481;DHT22;10399;50.754;3.366;2022-07-30T11:26:01;29.50;96.60
20481;DHT22;10399;50.754;3.366;2022-07-30T11:31:01;29.00;97.00
20481;DHT22;10399;50.754;3.366;2022-07-30T11:33:36;29.20;96.50
20481;DHT22;10399;50.754;3.366;2022-07-30T11:36:09;29.30;96.00
20481;DHT22;10399;50.754;3.366;2022-07-30T11:38:54;29.60;97.20
20481;DHT22;10399;50.754;3.366;2022-07-30T11:41:26;29.90;95.10
20481;DHT22;10399;50.754;3.366;2022-07-30T11:44:28;29.60;95.40
20481;DHT22;10399;50.754;3.366;2022-07-30T11:46:56;29.40;94.30
20481;DHT22;10399;50.754;3.366;2022-07-30T11:49:23;29.00;94.40
20481;DHT22;10399;50.754;3.366;2022-07-30T11:51:50;29.40;94.80
20481;DHT22;10399;50.754;3.366;2022-07-30T11:54:18;29.80;94.20
20481;DHT22;10399;50.754;3.366;2022-07-30T11:56:53;30.00;93.60
20481;DHT22;10399;50.754;3.366;2022-07-30T11:59:20;30.20;93.70
20481;DHT22;10399;50.754;3.366;2022-07-30T12:01:52;30.10;93.40
20481;DHT22;10399;50.754;3.366;2022-07-30T12:04:21;30.30;94.00
20481;DHT22;10399;50.754;3.366;2022-07-30T12:06:50;30.30;93.10
20481;DHT22;10399;50.754;3.366;2022-07-30T12:09:22;30.00;93.10
20481;DHT22;10399;50.754;3.366;2022-07-30T12:11:53;30.00;93.40
20481;DHT22;10399;50.754;3.366;2022-07-30T12:14:21;29.80;93.80
20481;DHT22;10399;50.754;3.366;2022-07-30T12:16:52;29.40;93.70
20481;DHT22;10399;50.754;3.366;2022-07-30T12:19:19;29.30;94.10
20481;DHT22;10399;50.754;3.366;2022-07-30T12:21:46;29.30;93.70
20481;DHT22;10399;50.754;3.366;2022-07-30T12:24:24;29.00;93.90
20481;DHT22;10399;50.754;3.366;2022-07-30T12:27:03;29.30;94.10
20481;DHT22;10399;50.754;3.366;2022-07-30T12:29:35;29.20;93.30
20481;DHT22;10399;50.754;3.366;2022-07-30T12:32:02;29.50;92.80
20481;DHT22;10399;50.754;3.366;2022-07-30T12:34:30;29.80;92.80
20481;DHT22;10399;50.754;3.366;2022-07-30T12:37:07;29.70;92.80
20481;DHT22;10399;50.754;3.366;2022-07-30T12:39:35;29.90;92.80
20481;DHT22;10399;50.754;3.366;2022-07-30T12:42:03;29.60;93.00
20481;DHT22;10399;50.754;3.366;2022-07-30T12:44:41;29.70;92.70
20481;DHT22;10399;50.754;3.366;2022-07-30T12:47:29;30.00;93.50
20481;DHT22;10399;50.754;3.366;2022-07-30T12:49:58;29.90;93.60
20481;DHT22;10399;50.754;3.366;2022-07-30T12:52:29;29.90;93.00
20481;DHT22;10399;50.754;3.366;2022-07-30T12:55:08;29.20;93.90
20481;DHT22;10399;50.754;3.366;2022-07-30T12:57:56;29.50;94.20
20481;DHT22;10399;50.754;3.366;2022-07-30T13:00:28;29.90;93.50
20481;DHT22;10399;50.754;3.366;2022-07-30T13:02:56;29.80;93.40
20481;DHT22;10399;50.754;3.366;2022-07-30T13:08:08;29.90;93.40
20481;DHT22;10399;50.754;3.366;2022-07-30T13:10:36;29.90;93.30
20481;DHT22;10399;50.754;3.366;2022-07-30T13:13:03;29.40;92.90
20481;DHT22;10399;50.754;3.366;2022-07-30T13:15:30;29.20;93.40
20481;DHT22;10399;50.754;3.366;2022-07-30T13:17:57;29.40;93.70
20481;DHT22;10399;50.754;3.366;2022-07-30T13:20:24;29.10;93.50
20481;DHT22;10399;50.754;3.366;2022-07-30T13:22:51;28.90;94.00
20481;DHT22;10399;50.754;3.366;2022-07-30T13:25:18;29.00;94.20
20481;DHT22;10399;50.754;3.366;2022-07-30T13:27:45;29.00;94.30
20481;DHT22;10399;50.754;3.366;2022-07-30T13:30:13;28.90;94.00
20481;DHT22;10399;50.754;3.366;2022-07-30T13:32:40;28.80;94.50
20481;DHT22;10399;50.754;3.366;2022-07-30T13:35:08;28.70;95.00
20481;DHT22;10399;50.754;3.366;2022-07-30T13:37:35;28.70;95.10
20481;DHT22;10399;50.754;3.366;2022-07-30T13:40:05;28.80;95.10
20481;DHT22;10399;50.754;3.366;2022-07-30T13:42:33;28.70;94.60
20481;DHT22;10399;50.754;3.366;2022-07-30T13:45:00;28.80;95.10
20481;DHT22;10399;50.754;3.366;2022-07-30T13:47:27;28.90;94.70
20481;DHT22;10399;50.754;3.366;2022-07-30T13:49:57;29.20;94.30
20481;DHT22;10399;50.754;3.366;2022-07-30T13:52:24;28.70;94.20
20481;DHT22;10399;50.754;3.366;2022-07-30T13:54:51;28.50;94.40
20481;DHT22;10399;50.754;3.366;2022-07-30T13:57:19;28.60;94.60
20481;DHT22;10399;50.754;3.366;2022-07-30T13:59:46;28.80;94.50
20481;DHT22;10399;50.754;3.366;2022-07-30T14:02:13;28.80;94.80
20481;DHT22;10399;50.754;3.366;2022-07-30T14:04:41;28.80;95.10
20481;DHT22;10399;50.754;3.366;2022-07-30T14:07:08;28.70;94.60
20481;DHT22;10399;50.754;3.366;2022-07-30T14:09:36;28.50;94.90
20481;DHT22;10399;50.754;3.366;2022-07-30T14:12:14;28.50;94.70
20481;DHT22;10399;50.754;3.366;2022-07-30T14:14:40;28.50;94.80
20481;DHT22;10399;50.754;3.366;2022-07-30T14:17:07;28.70;94.90
20481;DHT22;10399;50.754;3.366;2022-07-30T14:19:35;29.00;94.40
20481;DHT22;10399;50.754;3.366;2022-07-30T14:22:02;29.00;94.40
20481;DHT22;10399;50.754;3.366;2022-07-30T14:24:29;28.90;94.80
20481;DHT22;10399;50.754;3.366;2022-07-30T14:26:56;29.30;94.30
20481;DHT22;10399;50.754;3.366;2022-07-30T14:29:25;29.40;93.90
20481;DHT22;10399;50.754;3.366;2022-07-30T14:31:53;29.10;94.00
20481;DHT22;10399;50.754;3.366;2022-07-30T14:34:21;29.10;93.90
20481;DHT22;10399;50.754;3.366;2022-07-30T14:36:48;29.10;94.00
20481;DHT22;10399;50.754;3.366;2022-07-30T14:39:15;29.10;94.20
20481;DHT22;10399;50.754;3.366;2022-07-30T14:41:42;29.00;94.20
20481;DHT22;10399;50.754;3.366;2022-07-30T14:44:09;29.20;94.20
20481;DHT22;10399;50.754;3.366;2022-07-30T14:46:38;29.50;94.20
20481;DHT22;10399;50.754;3.366;2022-07-30T14:49:19;29.70;93.70
20481;DHT22;10399;50.754;3.366;2022-07-30T14:51:48;29.70;93.70
20481;DHT22;10399;50.754;3.366;2022-07-30T14:54:15;29.80;93.50
20481;DHT22;10399;50.754;3.366;2022-07-30T14:56:43;29.50;93.00
20481;DHT22;10399;50.754;3.366;2022-07-30T14:59:10;29.30;93.10
20481;DHT22;10399;50.754;3.366;2022-07-30T15:01:37;28.90;93.30
20481;DHT22;10399;50.754;3.366;2022-07-30T15:04:04;29.00;93.40
20481;DHT22;10399;50.754;3.366;2022-07-30T15:06:36;28.80;93.50
20481;DHT22;10399;50.754;3.366;2022-07-30T15:09:03;29.00;93.50
20481;DHT22;10399;50.754;3.366;2022-07-30T15:11:31;28.70;93.40
20481;DHT22;10399;50.754;3.366;2022-07-30T15:14:18;28.60;93.70
20481;DHT22;10399;50.754;3.366;2022-07-30T15:16:46;28.70;94.30
20481;DHT22;10399;50.754;3.366;2022-07-30T15:19:14;29.00;93.80
20481;DHT22;10399;50.754;3.366;2022-07-30T15:21:41;29.10;94.00
20481;DHT22;10399;50.754;3.366;2022-07-30T15:24:10;29.10;93.80
20481;DHT22;10399;50.754;3.366;2022-07-30T15:26:38;29.20;94.30
20481;DHT22;10399;50.754;3.366;2022-07-30T15:29:09;28.90;94.20
20481;DHT22;10399;50.754;3.366;2022-07-30T15:31:39;29.20;94.50
20481;DHT22;10399;50.754;3.366;2022-07-30T15:34:06;29.40;94.50
20481;DHT22;10399;50.754;3.366;2022-07-30T15:36:37;29.50;94.70
20481;DHT22;10399;50.754;3.366;2022-07-30T15:39:07;29.70;94.60
20481;DHT22;10399;50.754;3.366;2022-07-30T15:41:35;29.60;94.00
20481;DHT22;10399;50.754;3.366;2022-07-30T15:44:03;29.80;93.80
20481;DHT22;10399;50.754;3.366;2022-07-30T15:46:33;29.90;94.40
20481;DHT22;10399;50.754;3.366;2022-07-30T15:49:00;29.80;94.50
20481;DHT22;10399;50.754;3.366;2022-07-30T15:51:30;29.40;94.90
20481;DHT22;10399;50.754;3.366;2022-07-30T15:53:57;29.20;95.20
20481;DHT22;10399;50.754;3.366;2022-07-30T15:56:24;28.90;96.00
20481;DHT22;10399;50.754;3.366;2022-07-30T15:58:52;28.80;96.30
20481;DHT22;10399;50.754;3.366;2022-07-30T16:01:19;29.00;96.10
20481;DHT22;10399;50.754;3.366;2022-07-30T16:03:45;28.80;96.60
20481;DHT22;10399;50.754;3.366;2022-07-30T16:06:12;29.40;96.60
20481;DHT22;10399;50.754;3.366;2022-07-30T16:08:40;29.70;96.20
20481;DHT22;10399;50.754;3.366;2022-07-30T16:11:08;29.50;95.70
20481;DHT22;10399;50.754;3.366;2022-07-30T16:13:36;29.60;95.90
20481;DHT22;10399;50.754;3.366;2022-07-30T16:16:04;29.50;95.70
20481;DHT22;10399;50.754;3.366;2022-07-30T16:18:31;29.70;95.50
20481;DHT22;10399;50.754;3.366;2022-07-30T16:20:58;29.40;95.40
20481;DHT22;10399;50.754;3.366;2022-07-30T16:23:27;29.00;95.60